Terminal Aerodrome Forecast
Issued by NWS

Home | Current Version | Previous Version | Text Only | Print | Product List | Glossary On
Versions: 1 2 3 4 5 6 7 8 9 10 11 12 13 14 15 16 17 18 19 20 21 22 23 24 25 26 27 28 29 30 31 32
000
FTUS45 KBOI 251807 CCA
TAFMYL
TAF COR
KMYL 251807Z 2518/2618 VRB03KT 1/2SM FG OVC005
     FM251930 32003KT 3SM BR OVC010
     FM252130 VRB03KT P6SM OVC015
     FM261400 00000KT 1SM BR OVC007=

USA.gov is the U.S. government's official web portal to all federal, state and local government web resources and services.